sensor_id;sensor_type;location;lat;lon;timestamp;P1;durP1;ratioP1;P2;durP2;ratioP2
29080;SDS011;29711;53.360;-1.484;2022-09-13T00:02:09;2.85;;;1.10;;
29080;SDS011;29711;53.360;-1.484;2022-09-13T00:04:42;4.10;;;1.65;;
29080;SDS011;29711;53.360;-1.484;2022-09-13T00:07:25;3.55;;;1.30;;
29080;SDS011;29711;53.360;-1.484;2022-09-13T00:10:22;3.05;;;1.33;;
29080;SDS011;29711;53.360;-1.484;2022-09-13T00:12:59;2.95;;;1.25;;
29080;SDS011;29711;53.360;-1.484;2022-09-13T00:15:28;5.10;;;1.10;;
29080;SDS011;29711;53.360;-1.484;2022-09-13T00:17:56;6.43;;;1.13;;
29080;SDS011;29711;53.360;-1.484;2022-09-13T00:20:32;1.88;;;0.90;;
29080;SDS011;29711;53.360;-1.484;2022-09-13T00:23:08;4.75;;;1.60;;
29080;SDS011;29711;53.360;-1.484;2022-09-13T00:25:35;2.70;;;1.00;;
29080;SDS011;29711;53.360;-1.484;2022-09-13T00:33:44;3.65;;;1.25;;
29080;SDS011;29711;53.360;-1.484;2022-09-13T00:36:33;2.63;;;1.10;;
29080;SDS011;29711;53.360;-1.484;2022-09-13T00:39:11;4.60;;;1.02;;
29080;SDS011;29711;53.360;-1.484;2022-09-13T00:41:47;2.53;;;1.10;;
29080;SDS011;29711;53.360;-1.484;2022-09-13T00:47:28;2.90;;;1.20;;
29080;SDS011;29711;53.360;-1.484;2022-09-13T00:50:00;3.35;;;1.10;;
29080;SDS011;29711;53.360;-1.484;2022-09-13T00:52:35;3.35;;;1.10;;
29080;SDS011;29711;53.360;-1.484;2022-09-13T00:55:06;1.13;;;0.90;;
29080;SDS011;29711;53.360;-1.484;2022-09-13T00:57:37;2.40;;;1.33;;
29080;SDS011;29711;53.360;-1.484;2022-09-13T01:00:07;1.35;;;0.95;;
29080;SDS011;29711;53.360;-1.484;2022-09-13T01:02:44;0.88;;;0.75;;
29080;SDS011;29711;53.360;-1.484;2022-09-13T01:05:16;2.60;;;1.30;;
29080;SDS011;29711;53.360;-1.484;2022-09-13T01:07:47;2.15;;;1.30;;
29080;SDS011;29711;53.360;-1.484;2022-09-13T01:10:14;1.17;;;0.85;;
29080;SDS011;29711;53.360;-1.484;2022-09-13T01:12:43;2.55;;;1.10;;
29080;SDS011;29711;53.360;-1.484;2022-09-13T01:15:29;1.42;;;0.82;;
29080;SDS011;29711;53.360;-1.484;2022-09-13T01:17:57;2.00;;;1.02;;
29080;SDS011;29711;53.360;-1.484;2022-09-13T01:20:30;0.93;;;0.82;;
29080;SDS011;29711;53.360;-1.484;2022-09-13T01:26:36;1.10;;;0.90;;
29080;SDS011;29711;53.360;-1.484;2022-09-13T01:33:19;1.33;;;1.00;;
29080;SDS011;29711;53.360;-1.484;2022-09-13T01:39:26;1.98;;;1.08;;
29080;SDS011;29711;53.360;-1.484;2022-09-13T01:42:13;1.75;;;1.20;;
29080;SDS011;29711;53.360;-1.484;2022-09-13T01:47:54;1.67;;;0.70;;
29080;SDS011;29711;53.360;-1.484;2022-09-13T01:50:34;1.15;;;0.95;;
29080;SDS011;29711;53.360;-1.484;2022-09-13T01:53:12;0.88;;;0.85;;
29080;SDS011;29711;53.360;-1.484;2022-09-13T01:55:49;1.42;;;0.70;;
29080;SDS011;29711;53.360;-1.484;2022-09-13T01:58:30;2.42;;;1.15;;
29080;SDS011;29711;53.360;-1.484;2022-09-13T02:01:11;1.45;;;0.77;;
29080;SDS011;29711;53.360;-1.484;2022-09-13T02:03:49;3.60;;;0.90;;
29080;SDS011;29711;53.360;-1.484;2022-09-13T02:06:44;1.80;;;0.80;;
29080;SDS011;29711;53.360;-1.484;2022-09-13T02:09:36;1.23;;;0.75;;
29080;SDS011;29711;53.360;-1.484;2022-09-13T02:12:25;2.17;;;1.20;;
29080;SDS011;29711;53.360;-1.484;2022-09-13T02:14:58;2.75;;;1.00;;
29080;SDS011;29711;53.360;-1.484;2022-09-13T02:17:38;0.63;;;0.63;;
29080;SDS011;29711;53.360;-1.484;2022-09-13T02:20:11;2.55;;;1.10;;
29080;SDS011;29711;53.360;-1.484;2022-09-13T02:22:49;1.35;;;1.00;;
29080;SDS011;29711;53.360;-1.484;2022-09-13T02:25:19;3.15;;;1.00;;
29080;SDS011;29711;53.360;-1.484;2022-09-13T02:27:51;1.63;;;1.00;;
29080;SDS011;29711;53.360;-1.484;2022-09-13T02:30:27;1.35;;;0.98;;
29080;SDS011;29711;53.360;-1.484;2022-09-13T02:33:06;1.33;;;0.55;;
29080;SDS011;29711;53.360;-1.484;2022-09-13T02:35:39;0.90;;;0.77;;
29080;SDS011;29711;53.360;-1.484;2022-09-13T02:38:14;1.48;;;1.05;;
29080;SDS011;29711;53.360;-1.484;2022-09-13T02:40:48;2.85;;;0.88;;
29080;SDS011;29711;53.360;-1.484;2022-09-13T02:43:49;1.80;;;1.27;;
29080;SDS011;29711;53.360;-1.484;2022-09-13T02:46:32;2.47;;;1.50;;
29080;SDS011;29711;53.360;-1.484;2022-09-13T02:49:19;2.05;;;0.77;;
29080;SDS011;29711;53.360;-1.484;2022-09-13T02:52:11;1.00;;;0.90;;
29080;SDS011;29711;53.360;-1.484;2022-09-13T02:54:53;1.58;;;0.93;;
29080;SDS011;29711;53.360;-1.484;2022-09-13T02:57:32;1.63;;;0.70;;
29080;SDS011;29711;53.360;-1.484;2022-09-13T03:00:07;2.97;;;0.80;;
29080;SDS011;29711;53.360;-1.484;2022-09-13T03:02:35;2.05;;;1.00;;
29080;SDS011;29711;53.360;-1.484;2022-09-13T03:05:06;2.13;;;0.90;;
29080;SDS011;29711;53.360;-1.484;2022-09-13T03:07:42;0.63;;;0.60;;
29080;SDS011;29711;53.360;-1.484;2022-09-13T03:10:11;2.00;;;0.68;;
29080;SDS011;29711;53.360;-1.484;2022-09-13T03:12:52;2.42;;;1.00;;
29080;SDS011;29711;53.360;-1.484;2022-09-13T03:15:35;2.42;;;0.70;;
29080;SDS011;29711;53.360;-1.484;2022-09-13T03:18:21;2.17;;;0.90;;
29080;SDS011;29711;53.360;-1.484;2022-09-13T03:21:21;1.67;;;0.73;;
29080;SDS011;29711;53.360;-1.484;2022-09-13T03:24:21;0.77;;;0.68;;
29080;SDS011;29711;53.360;-1.484;2022-09-13T03:27:00;2.30;;;1.00;;
29080;SDS011;29711;53.360;-1.484;2022-09-13T03:29:39;2.15;;;0.80;;
29080;SDS011;29711;53.360;-1.484;2022-09-13T03:32:16;0.85;;;0.70;;
29080;SDS011;29711;53.360;-1.484;2022-09-13T03:34:52;1.33;;;0.70;;
29080;SDS011;29711;53.360;-1.484;2022-09-13T03:37:30;1.65;;;0.88;;
29080;SDS011;29711;53.360;-1.484;2022-09-13T03:40:02;1.52;;;0.70;;
29080;SDS011;29711;53.360;-1.484;2022-09-13T03:42:36;0.73;;;0.70;;
29080;SDS011;29711;53.360;-1.484;2022-09-13T03:45:18;1.05;;;0.70;;
29080;SDS011;29711;53.360;-1.484;2022-09-13T03:47:51;1.30;;;0.88;;
29080;SDS011;29711;53.360;-1.484;2022-09-13T03:50:23;0.82;;;0.82;;
29080;SDS011;29711;53.360;-1.484;2022-09-13T03:52:53;1.27;;;0.70;;
29080;SDS011;29711;53.360;-1.484;2022-09-13T03:55:25;1.63;;;0.90;;
29080;SDS011;29711;53.360;-1.484;2022-09-13T03:57:56;1.95;;;0.60;;
29080;SDS011;29711;53.360;-1.484;2022-09-13T04:00:25;1.35;;;0.63;;
29080;SDS011;29711;53.360;-1.484;2022-09-13T04:02:53;2.10;;;0.80;;
29080;SDS011;29711;53.360;-1.484;2022-09-13T04:05:26;2.08;;;0.98;;
29080;SDS011;29711;53.360;-1.484;2022-09-13T04:08:15;1.02;;;0.73;;
29080;SDS011;29711;53.360;-1.484;2022-09-13T04:11:02;0.93;;;0.55;;
29080;SDS011;29711;53.360;-1.484;2022-09-13T04:13:39;1.48;;;0.93;;
29080;SDS011;29711;53.360;-1.484;2022-09-13T04:16:12;1.08;;;0.47;;
29080;SDS011;29711;53.360;-1.484;2022-09-13T04:18:50;0.80;;;0.57;;
29080;SDS011;29711;53.360;-1.484;2022-09-13T04:21:21;1.88;;;0.68;;
29080;SDS011;29711;53.360;-1.484;2022-09-13T04:23:48;1.60;;;0.70;;
29080;SDS011;29711;53.360;-1.484;2022-09-13T04:26:16;1.23;;;0.60;;
29080;SDS011;29711;53.360;-1.484;2022-09-13T04:28:44;1.52;;;0.70;;
29080;SDS011;29711;53.360;-1.484;2022-09-13T04:31:11;0.82;;;0.80;;
29080;SDS011;29711;53.360;-1.484;2022-09-13T04:33:43;1.70;;;1.05;;
29080;SDS011;29711;53.360;-1.484;2022-09-13T04:36:26;4.80;;;1.30;;
29080;SDS011;29711;53.360;-1.484;2022-09-13T04:38:53;1.90;;;0.90;;
29080;SDS011;29711;53.360;-1.484;2022-09-13T04:41:24;1.52;;;0.98;;
29080;SDS011;29711;53.360;-1.484;2022-09-13T04:43:56;0.80;;;0.60;;
29080;SDS011;29711;53.360;-1.484;2022-09-13T04:46:23;2.08;;;1.25;;
29080;SDS011;29711;53.360;-1.484;2022-09-13T04:48:50;1.38;;;0.85;;
29080;SDS011;29711;53.360;-1.484;2022-09-13T04:51:18;2.20;;;0.98;;
29080;SDS011;29711;53.360;-1.484;2022-09-13T04:53:46;0.57;;;0.57;;
29080;SDS011;29711;53.360;-1.484;2022-09-13T04:56:17;2.28;;;0.80;;
29080;SDS011;29711;53.360;-1.484;2022-09-13T04:58:45;1.05;;;0.55;;
29080;SDS011;29711;53.360;-1.484;2022-09-13T05:01:14;0.85;;;0.57;;
29080;SDS011;29711;53.360;-1.484;2022-09-13T05:03:42;1.60;;;0.73;;
29080;SDS011;29711;53.360;-1.484;2022-09-13T05:06:10;2.13;;;1.02;;
29080;SDS011;29711;53.360;-1.484;2022-09-13T05:08:39;2.70;;;0.82;;
29080;SDS011;29711;53.360;-1.484;2022-09-13T05:11:06;1.60;;;0.77;;
29080;SDS011;29711;53.360;-1.484;2022-09-13T05:13:36;1.27;;;0.70;;
29080;SDS011;29711;53.360;-1.484;2022-09-13T05:16:43;1.55;;;0.90;;
29080;SDS011;29711;53.360;-1.484;2022-09-13T05:19:18;0.77;;;0.63;;
29080;SDS011;29711;53.360;-1.484;2022-09-13T05:21:48;1.52;;;0.80;;
29080;SDS011;29711;53.360;-1.484;2022-09-13T05:24:18;1.10;;;0.73;;
29080;SDS011;29711;53.360;-1.484;2022-09-13T05:26:48;1.58;;;0.85;;
29080;SDS011;29711;53.360;-1.484;2022-09-13T05:29:29;0.98;;;0.60;;
29080;SDS011;29711;53.360;-1.484;2022-09-13T05:31:59;1.00;;;0.80;;
29080;SDS011;29711;53.360;-1.484;2022-09-13T05:34:29;1.73;;;1.00;;
29080;SDS011;29711;53.360;-1.484;2022-09-13T05:36:56;0.90;;;0.88;;
29080;SDS011;29711;53.360;-1.484;2022-09-13T05:39:23;3.10;;;0.90;;
29080;SDS011;29711;53.360;-1.484;2022-09-13T05:41:51;1.17;;;0.57;;
29080;SDS011;29711;53.360;-1.484;2022-09-13T05:44:20;1.70;;;1.08;;
29080;SDS011;29711;53.360;-1.484;2022-09-13T05:46:48;1.83;;;1.10;;
29080;SDS011;29711;53.360;-1.484;2022-09-13T05:49:20;1.05;;;0.70;;
29080;SDS011;29711;53.360;-1.484;2022-09-13T05:51:47;1.27;;;0.82;;
29080;SDS011;29711;53.360;-1.484;2022-09-13T05:54:17;3.20;;;1.10;;
29080;SDS011;29711;53.360;-1.484;2022-09-13T05:56:47;1.45;;;0.93;;
29080;SDS011;29711;53.360;-1.484;2022-09-13T05:59:16;1.77;;;0.90;;
29080;SDS011;29711;53.360;-1.484;2022-09-13T06:01:45;5.65;;;1.08;;
29080;SDS011;29711;53.360;-1.484;2022-09-13T06:04:15;0.98;;;0.80;;
29080;SDS011;29711;53.360;-1.484;2022-09-13T06:06:45;3.13;;;1.00;;
29080;SDS011;29711;53.360;-1.484;2022-09-13T06:09:13;2.40;;;1.00;;
29080;SDS011;29711;53.360;-1.484;2022-09-13T06:11:40;1.05;;;0.73;;
29080;SDS011;29711;53.360;-1.484;2022-09-13T06:14:08;1.42;;;0.80;;
29080;SDS011;29711;53.360;-1.484;2022-09-13T06:16:37;2.78;;;0.75;;
29080;SDS011;29711;53.360;-1.484;2022-09-13T06:19:07;1.50;;;0.60;;
29080;SDS011;29711;53.360;-1.484;2022-09-13T06:21:35;0.90;;;0.77;;
29080;SDS011;29711;53.360;-1.484;2022-09-13T06:24:06;2.58;;;1.02;;
29080;SDS011;29711;53.360;-1.484;2022-09-13T06:26:33;1.17;;;0.88;;
29080;SDS011;29711;53.360;-1.484;2022-09-13T06:29:04;1.98;;;0.85;;
29080;SDS011;29711;53.360;-1.484;2022-09-13T06:31:34;0.95;;;0.60;;
29080;SDS011;29711;53.360;-1.484;2022-09-13T06:34:11;2.78;;;1.00;;
29080;SDS011;29711;53.360;-1.484;2022-09-13T06:36:44;1.40;;;0.95;;
29080;SDS011;29711;53.360;-1.484;2022-09-13T06:39:12;1.73;;;0.80;;
29080;SDS011;29711;53.360;-1.484;2022-09-13T06:41:45;0.95;;;0.85;;
29080;SDS011;29711;53.360;-1.484;2022-09-13T06:44:13;2.87;;;0.70;;
29080;SDS011;29711;53.360;-1.484;2022-09-13T06:46:44;2.17;;;0.82;;
29080;SDS011;29711;53.360;-1.484;2022-09-13T06:49:16;2.40;;;0.82;;
29080;SDS011;29711;53.360;-1.484;2022-09-13T06:51:43;1.23;;;0.70;;
29080;SDS011;29711;53.360;-1.484;2022-09-13T06:54:10;1.45;;;0.68;;
29080;SDS011;29711;53.360;-1.484;2022-09-13T06:56:39;2.22;;;0.75;;
29080;SDS011;29711;53.360;-1.484;2022-09-13T06:59:10;1.48;;;1.05;;
29080;SDS011;29711;53.360;-1.484;2022-09-13T07:01:40;1.52;;;1.02;;
29080;SDS011;29711;53.360;-1.484;2022-09-13T07:04:09;0.90;;;0.70;;
29080;SDS011;29711;53.360;-1.484;2022-09-13T07:06:38;0.80;;;0.75;;
29080;SDS011;29711;53.360;-1.484;2022-09-13T07:09:07;2.97;;;0.70;;
29080;SDS011;29711;53.360;-1.484;2022-09-13T07:11:38;2.63;;;1.02;;
29080;SDS011;29711;53.360;-1.484;2022-09-13T07:14:11;1.27;;;0.70;;
29080;SDS011;29711;53.360;-1.484;2022-09-13T07:16:39;1.17;;;0.98;;
29080;SDS011;29711;53.360;-1.484;2022-09-13T07:19:09;0.73;;;0.52;;
29080;SDS011;29711;53.360;-1.484;2022-09-13T07:21:39;2.10;;;0.80;;
29080;SDS011;29711;53.360;-1.484;2022-09-13T07:24:06;1.83;;;1.02;;
29080;SDS011;29711;53.360;-1.484;2022-09-13T07:26:33;0.75;;;0.70;;
29080;SDS011;29711;53.360;-1.484;2022-09-13T07:29:04;1.73;;;0.77;;
29080;SDS011;29711;53.360;-1.484;2022-09-13T07:31:42;1.60;;;0.90;;
29080;SDS011;29711;53.360;-1.484;2022-09-13T07:34:11;1.33;;;0.90;;
29080;SDS011;29711;53.360;-1.484;2022-09-13T07:36:39;1.23;;;0.65;;
29080;SDS011;29711;53.360;-1.484;2022-09-13T07:39:12;1.90;;;0.75;;
29080;SDS011;29711;53.360;-1.484;2022-09-13T07:41:46;1.83;;;0.77;;
29080;SDS011;29711;53.360;-1.484;2022-09-13T07:47:46;0.80;;;0.80;;
29080;SDS011;29711;53.360;-1.484;2022-09-13T07:50:17;1.00;;;0.95;;
29080;SDS011;29711;53.360;-1.484;2022-09-13T07:52:55;2.67;;;1.08;;
29080;SDS011;29711;53.360;-1.484;2022-09-13T07:55:26;2.38;;;1.05;;
29080;SDS011;29711;53.360;-1.484;2022-09-13T07:57:54;1.92;;;1.40;;
29080;SDS011;29711;53.360;-1.484;2022-09-13T08:00:31;3.45;;;1.08;;
29080;SDS011;29711;53.360;-1.484;2022-09-13T08:02:58;3.22;;;1.70;;
29080;SDS011;29711;53.360;-1.484;2022-09-13T08:05:26;4.20;;;1.40;;
29080;SDS011;29711;53.360;-1.484;2022-09-13T08:08:08;3.72;;;1.90;;
29080;SDS011;29711;53.360;-1.484;2022-09-13T08:11:12;2.33;;;1.70;;
29080;SDS011;29711;53.360;-1.484;2022-09-13T08:13:42;4.50;;;2.13;;
29080;SDS011;29711;53.360;-1.484;2022-09-13T08:16:23;3.35;;;1.95;;
29080;SDS011;29711;53.360;-1.484;2022-09-13T08:19:42;3.03;;;1.90;;
29080;SDS011;29711;53.360;-1.484;2022-09-13T08:22:10;4.35;;;1.65;;
29080;SDS011;29711;53.360;-1.484;2022-09-13T08:24:47;4.90;;;2.08;;
29080;SDS011;29711;53.360;-1.484;2022-09-13T08:27:16;2.55;;;1.92;;
29080;SDS011;29711;53.360;-1.484;2022-09-13T08:29:50;6.20;;;2.55;;
29080;SDS011;29711;53.360;-1.484;2022-09-13T08:32:22;4.22;;;2.00;;
29080;SDS011;29711;53.360;-1.484;2022-09-13T08:34:50;4.40;;;2.20;;
29080;SDS011;29711;53.360;-1.484;2022-09-13T08:37:17;5.20;;;2.10;;
29080;SDS011;29711;53.360;-1.484;2022-09-13T08:39:48;4.45;;;2.58;;
29080;SDS011;29711;53.360;-1.484;2022-09-13T08:42:19;3.75;;;2.17;;
29080;SDS011;29711;53.360;-1.484;2022-09-13T08:44:54;2.85;;;1.73;;
29080;SDS011;29711;53.360;-1.484;2022-09-13T08:50:20;3.63;;;1.80;;
29080;SDS011;29711;53.360;-1.484;2022-09-13T08:55:51;3.80;;;2.00;;
29080;SDS011;29711;53.360;-1.484;2022-09-13T08:58:35;2.80;;;1.33;;
29080;SDS011;29711;53.360;-1.484;2022-09-13T09:01:13;7.53;;;1.88;;
29080;SDS011;29711;53.360;-1.484;2022-09-13T09:04:38;2.97;;;1.80;;
29080;SDS011;29711;53.360;-1.484;2022-09-13T09:07:12;4.82;;;1.95;;
29080;SDS011;29711;53.360;-1.484;2022-09-13T09:09:48;4.25;;;2.03;;
29080;SDS011;29711;53.360;-1.484;2022-09-13T09:12:22;2.95;;;1.40;;
29080;SDS011;29711;53.360;-1.484;2022-09-13T09:15:04;2.13;;;1.65;;
29080;SDS011;29711;53.360;-1.484;2022-09-13T09:17:41;4.75;;;2.53;;
29080;SDS011;29711;53.360;-1.484;2022-09-13T09:20:22;2.60;;;1.50;;
29080;SDS011;29711;53.360;-1.484;2022-09-13T09:22:52;3.15;;;1.67;;
29080;SDS011;29711;53.360;-1.484;2022-09-13T09:25:20;1.98;;;1.30;;
29080;SDS011;29711;53.360;-1.484;2022-09-13T09:27:50;3.97;;;2.33;;
29080;SDS011;29711;53.360;-1.484;2022-09-13T09:30:19;3.03;;;1.52;;
29080;SDS011;29711;53.360;-1.484;2022-09-13T09:32:50;7.00;;;2.55;;
29080;SDS011;29711;53.360;-1.484;2022-09-13T09:38:24;3.33;;;1.95;;
29080;SDS011;29711;53.360;-1.484;2022-09-13T09:41:15;3.80;;;2.15;;
29080;SDS011;29711;53.360;-1.484;2022-09-13T09:43:53;5.28;;;1.60;;
29080;SDS011;29711;53.360;-1.484;2022-09-13T09:46:29;4.18;;;1.58;;
29080;SDS011;29711;53.360;-1.484;2022-09-13T09:49:01;4.20;;;1.45;;
29080;SDS011;29711;53.360;-1.484;2022-09-13T09:54:31;3.45;;;1.27;;
29080;SDS011;29711;53.360;-1.484;2022-09-13T09:57:04;6.38;;;1.70;;
29080;SDS011;29711;53.360;-1.484;2022-09-13T09:59:38;6.40;;;1.90;;
29080;SDS011;29711;53.360;-1.484;2022-09-13T10:02:20;5.05;;;1.85;;
